createdAt,value
2022-10-29T00:01:44.228Z,19.57
2022-10-29T00:04:11.902Z,19.59
2022-10-29T00:06:39.612Z,19.54
2022-10-29T00:09:07.417Z,19.75
2022-10-29T00:11:35.492Z,19.79
2022-10-29T00:14:04.644Z,19.51
2022-10-29T00:16:37.333Z,19.46
2022-10-29T00:19:05.352Z,19.62
2022-10-29T00:21:34.437Z,19.36
2022-10-29T00:24:02.143Z,19.54
2022-10-29T00:26:30.766Z,19.40
2022-10-29T00:28:58.505Z,19.69
2022-10-29T00:31:27.684Z,19.46
2022-10-29T00:33:56.479Z,18.94
2022-10-29T00:36:26.228Z,19.23
2022-10-29T00:38:53.863Z,19.28
2022-10-29T00:41:26.368Z,19.33
2022-10-29T00:44:27.027Z,19.29
2022-10-29T00:46:59.495Z,19.17
2022-10-29T00:49:27.762Z,19.34
2022-10-29T00:51:55.907Z,18.49
2022-10-29T00:54:23.724Z,18.74
2022-10-29T00:56:53.989Z,19.11
2022-10-29T00:59:21.683Z,19.21
2022-10-29T01:01:49.948Z,18.71
2022-10-29T01:04:19.687Z,18.72
2022-10-29T01:06:47.545Z,18.80
2022-10-29T01:09:15.218Z,18.99
2022-10-29T01:11:52.107Z,19.02
2022-10-29T01:14:26.708Z,18.91
2022-10-29T01:16:58.795Z,18.80
2022-10-29T01:19:43.827Z,18.42
2022-10-29T01:22:15.370Z,18.60
2022-10-29T01:24:53.608Z,18.55
2022-10-29T01:27:58.797Z,18.71
2022-10-29T01:31:02.210Z,18.32
2022-10-29T01:33:35.286Z,18.35
2022-10-29T01:36:07.665Z,18.36
2022-10-29T01:38:38.323Z,18.36
2022-10-29T01:41:10.182Z,18.37
2022-10-29T01:43:40.453Z,18.45
2022-10-29T01:46:13.692Z,18.42
2022-10-29T01:48:44.794Z,18.41
2022-10-29T01:51:19.283Z,18.47
2022-10-29T01:53:47.408Z,18.43
2022-10-29T01:56:15.041Z,18.32
2022-10-29T01:58:47.084Z,18.23
2022-10-29T02:01:24.862Z,18.16
2022-10-29T02:03:58.271Z,18.12
2022-10-29T02:06:33.452Z,17.90
2022-10-29T02:09:06.349Z,17.96
2022-10-29T02:11:38.560Z,17.82
2022-10-29T02:14:08.633Z,17.85
2022-10-29T02:16:38.018Z,17.91
2022-10-29T02:19:06.472Z,17.97
2022-10-29T02:21:34.165Z,18.06
2022-10-29T02:24:01.840Z,17.83
2022-10-29T02:26:29.486Z,17.63
2022-10-29T02:28:57.308Z,17.71
2022-10-29T02:31:24.943Z,17.77
2022-10-29T02:33:53.935Z,17.86
2022-10-29T02:36:21.588Z,17.79
2022-10-29T02:38:49.236Z,17.78
2022-10-29T02:41:16.848Z,17.61
2022-10-29T02:43:44.512Z,17.49
2022-10-29T02:46:16.273Z,17.56
2022-10-29T02:48:44.019Z,17.53
2022-10-29T02:51:13.153Z,17.55
2022-10-29T02:53:40.896Z,17.66
2022-10-29T02:56:09.122Z,17.38
2022-10-29T02:58:37.252Z,17.43
2022-10-29T03:01:05.569Z,17.67
2022-10-29T03:03:33.199Z,17.61
2022-10-29T03:06:00.858Z,17.05
2022-10-29T03:08:29.878Z,17.10
2022-10-29T03:10:57.576Z,17.02
2022-10-29T03:13:25.319Z,17.01
2022-10-29T03:15:52.952Z,17.25
2022-10-29T03:18:20.567Z,17.46
2022-10-29T03:20:48.519Z,17.80
2022-10-29T03:23:16.261Z,17.82
2022-10-29T03:25:45.629Z,17.92
2022-10-29T03:28:13.266Z,17.97
2022-10-29T03:30:40.903Z,17.90
2022-10-29T03:33:08.521Z,17.95
2022-10-29T03:35:36.328Z,17.62
2022-10-29T03:38:04.036Z,17.81
2022-10-29T03:40:31.685Z,17.61
2022-10-29T03:43:00.725Z,17.57
2022-10-29T03:45:28.356Z,17.72
2022-10-29T03:47:57.263Z,17.87
2022-10-29T03:50:25.147Z,17.88
2022-10-29T03:52:52.800Z,17.85
2022-10-29T03:55:20.419Z,18.11
2022-10-29T03:57:48.101Z,17.98
2022-10-29T04:00:17.879Z,18.03
2022-10-29T04:02:45.954Z,18.09
2022-10-29T04:05:13.665Z,18.09
2022-10-29T04:07:41.303Z,18.31
2022-10-29T04:10:09.665Z,18.24
2022-10-29T04:12:37.325Z,18.08
2022-10-29T04:15:05.602Z,17.93
2022-10-29T04:17:34.873Z,17.76
2022-10-29T04:20:02.631Z,17.90
2022-10-29T04:25:02.919Z,17.98
2022-10-29T04:30:54.119Z,17.93
2022-10-29T04:33:23.137Z,18.01
2022-10-29T04:35:54.346Z,18.20
2022-10-29T04:38:22.584Z,17.89
2022-10-29T04:40:50.353Z,17.93
2022-10-29T04:43:18.305Z,17.93
2022-10-29T04:45:45.958Z,17.97
2022-10-29T04:48:13.588Z,18.03
2022-10-29T04:50:42.593Z,18.17
2022-10-29T04:53:10.228Z,18.14
2022-10-29T04:55:39.197Z,18.09
2022-10-29T04:58:07.265Z,18.12
2022-10-29T05:00:35.302Z,18.22
2022-10-29T05:03:02.936Z,18.28
2022-10-29T05:05:30.794Z,18.21
2022-10-29T05:08:00.624Z,18.22
2022-10-29T05:10:28.912Z,18.41
2022-10-29T05:13:00.264Z,18.45
2022-10-29T05:15:28.829Z,18.50
2022-10-29T05:17:57.271Z,18.54
2022-10-29T05:20:25.471Z,18.55
2022-10-29T05:23:00.920Z,18.58
2022-10-29T05:25:28.855Z,18.69
2022-10-29T05:28:03.679Z,18.32
2022-10-29T05:30:31.625Z,17.25
2022-10-29T05:32:59.416Z,17.04
2022-10-29T05:35:27.658Z,17.00
2022-10-29T05:37:55.736Z,16.77
2022-10-29T05:40:25.389Z,17.04
2022-10-29T05:42:53.103Z,16.94
2022-10-29T05:45:21.012Z,17.40
2022-10-29T05:47:48.722Z,17.78
2022-10-29T05:50:16.558Z,17.89
2022-10-29T05:52:44.213Z,17.98
2022-10-29T05:55:13.964Z,18.03
2022-10-29T05:57:42.950Z,18.15
2022-10-29T06:00:11.684Z,18.12
2022-10-29T06:02:39.365Z,18.27
2022-10-29T06:05:07.942Z,18.27
2022-10-29T06:07:35.603Z,18.47
2022-10-29T06:10:03.208Z,18.37
2022-10-29T06:12:34.815Z,18.33
2022-10-29T06:15:04.254Z,18.38
2022-10-29T06:17:31.880Z,18.27
2022-10-29T06:19:59.520Z,18.25
2022-10-29T06:22:27.170Z,18.30
2022-10-29T06:24:54.803Z,18.29
2022-10-29T06:27:22.453Z,18.22
2022-10-29T06:29:50.073Z,18.21
2022-10-29T06:32:19.075Z,18.32
2022-10-29T06:34:46.698Z,18.24
2022-10-29T06:37:14.374Z,18.17
2022-10-29T06:39:42.028Z,18.25
2022-10-29T06:42:09.688Z,18.44
2022-10-29T06:44:37.346Z,18.51
2022-10-29T06:47:05.033Z,18.49
2022-10-29T06:49:34.015Z,18.59
2022-10-29T06:52:01.451Z,18.57
2022-10-29T06:54:28.906Z,18.61
2022-10-29T06:56:56.363Z,18.68
2022-10-29T06:59:24.478Z,18.49
2022-10-29T07:01:52.113Z,18.41
2022-10-29T07:04:20.836Z,18.53
2022-10-29T07:06:49.649Z,18.44
2022-10-29T07:09:17.102Z,18.21
2022-10-29T07:11:44.624Z,18.34
2022-10-29T07:14:12.091Z,18.53
2022-10-29T07:16:39.539Z,18.75
2022-10-29T07:19:07.225Z,18.18
2022-10-29T07:21:34.702Z,18.46
2022-10-29T07:24:03.690Z,18.67
2022-10-29T07:26:31.251Z,19.05
2022-10-29T07:28:58.856Z,19.19
2022-10-29T07:31:26.320Z,18.55
2022-10-29T07:33:53.765Z,18.71
2022-10-29T07:36:21.220Z,19.27
2022-10-29T07:38:48.852Z,19.08
2022-10-29T07:41:17.657Z,19.35
2022-10-29T07:43:45.124Z,19.47
2022-10-29T07:46:12.592Z,19.32
2022-10-29T07:48:40.027Z,19.56
2022-10-29T07:51:07.523Z,19.74
2022-10-29T07:53:34.963Z,19.72
2022-10-29T07:56:02.448Z,19.72
2022-10-29T07:58:31.254Z,19.74
2022-10-29T08:01:00.224Z,19.90
2022-10-29T08:03:27.786Z,19.58
2022-10-29T08:05:57.552Z,20.22
2022-10-29T08:08:25.058Z,20.42
2022-10-29T08:10:52.536Z,20.70
2022-10-29T08:13:20.002Z,21.00
2022-10-29T08:15:48.853Z,21.28
2022-10-29T08:18:16.923Z,21.35
2022-10-29T08:20:44.470Z,20.88
2022-10-29T08:23:12.137Z,21.06
2022-10-29T08:25:41.493Z,21.24
2022-10-29T08:28:09.431Z,20.86
2022-10-29T08:30:36.926Z,20.98
2022-10-29T08:33:05.841Z,20.63
2022-10-29T08:35:33.481Z,21.33
2022-10-29T08:38:00.960Z,21.39
2022-10-29T08:40:29.691Z,21.28
2022-10-29T08:43:01.519Z,21.40
2022-10-29T08:45:29.474Z,21.32
2022-10-29T08:48:01.489Z,21.44
2022-10-29T08:50:30.824Z,21.84
2022-10-29T08:53:22.358Z,21.91
2022-10-29T08:55:45.929Z,21.68
2022-10-29T08:58:17.523Z,21.70
2022-10-29T09:00:45.032Z,22.36
2022-10-29T09:03:13.226Z,22.11
2022-10-29T09:05:48.315Z,22.00
2022-10-29T09:08:20.076Z,22.32
2022-10-29T09:10:48.531Z,22.34
2022-10-29T09:13:22.751Z,22.46
2022-10-29T09:15:57.244Z,22.48
2022-10-29T09:18:30.475Z,22.85
2022-10-29T09:21:02.166Z,22.53
2022-10-29T09:23:31.651Z,21.91
2022-10-29T09:26:01.419Z,21.51
2022-10-29T09:28:31.684Z,21.90
2022-10-29T09:31:00.097Z,22.11
2022-10-29T09:33:27.547Z,22.24
2022-10-29T09:35:55.484Z,22.33
2022-10-29T09:38:24.946Z,22.60
2022-10-29T09:40:52.396Z,22.14
2022-10-29T09:43:22.754Z,22.51
2022-10-29T09:45:51.795Z,22.88
2022-10-29T09:48:21.324Z,21.76
2022-10-29T09:50:51.072Z,21.87
2022-10-29T09:53:18.742Z,22.46
2022-10-29T09:55:53.273Z,21.93
2022-10-29T09:58:21.436Z,22.86
2022-10-29T10:00:48.901Z,23.58
2022-10-29T10:03:17.477Z,23.02
2022-10-29T10:05:57.771Z,23.08
2022-10-29T10:08:25.262Z,22.46
2022-10-29T10:10:54.373Z,22.90
2022-10-29T10:13:26.127Z,23.25
2022-10-29T10:15:55.163Z,22.95
2022-10-29T10:18:23.490Z,23.44
2022-10-29T10:21:00.883Z,23.73
2022-10-29T10:23:28.952Z,24.26
2022-10-29T10:26:02.056Z,24.20
2022-10-29T10:28:34.364Z,23.88
2022-10-29T10:31:14.696Z,23.85
2022-10-29T10:33:45.861Z,23.12
2022-10-29T10:36:13.331Z,22.93
2022-10-29T10:38:41.496Z,23.52
2022-10-29T10:41:10.585Z,23.38
2022-10-29T10:43:38.051Z,22.84
2022-10-29T10:46:06.768Z,23.42
2022-10-29T10:51:11.673Z,23.35
2022-10-29T10:53:40.419Z,23.96
2022-10-29T10:56:14.966Z,23.52
2022-10-29T10:58:42.985Z,23.68
2022-10-29T11:01:11.171Z,23.63
2022-10-29T11:03:40.219Z,23.72
2022-10-29T11:06:08.041Z,23.76
2022-10-29T11:08:36.343Z,24.27
2022-10-29T11:11:05.339Z,23.58
2022-10-29T11:13:34.272Z,24.07
2022-10-29T11:16:02.907Z,24.29
2022-10-29T11:18:31.378Z,24.19
2022-10-29T11:21:05.230Z,23.80
2022-10-29T11:23:35.208Z,24.66
2022-10-29T11:26:04.948Z,24.02
2022-10-29T11:28:34.588Z,24.46
2022-10-29T11:31:04.136Z,24.27
2022-10-29T11:33:35.019Z,24.76
2022-10-29T11:36:03.248Z,24.49
2022-10-29T11:38:32.311Z,25.09
2022-10-29T11:41:04.728Z,25.28
2022-10-29T11:43:32.308Z,24.59
2022-10-29T11:46:02.928Z,25.07
2022-10-29T11:48:35.920Z,25.17
2022-10-29T11:51:05.360Z,25.26
2022-10-29T11:53:38.105Z,25.59
2022-10-29T11:56:06.700Z,25.49
2022-10-29T11:58:38.159Z,25.22
2022-10-29T12:01:11.189Z,25.02
2022-10-29T12:03:51.444Z,25.12
2022-10-29T12:06:19.986Z,25.34
2022-10-29T12:08:54.537Z,25.06
2022-10-29T12:11:23.863Z,24.97
2022-10-29T12:13:54.312Z,25.24
2022-10-29T12:16:28.539Z,25.83
2022-10-29T12:18:56.803Z,25.13
2022-10-29T12:21:27.588Z,26.01
2022-10-29T12:23:58.272Z,25.98
2022-10-29T12:26:26.768Z,25.98
2022-10-29T12:28:55.187Z,26.09
2022-10-29T12:31:26.387Z,26.23
2022-10-29T12:33:56.442Z,26.38
2022-10-29T12:36:26.091Z,25.46
2022-10-29T12:38:53.816Z,25.23
2022-10-29T12:41:21.575Z,25.32
2022-10-29T12:43:49.567Z,25.98
2022-10-29T12:46:21.351Z,25.49
2022-10-29T12:48:53.392Z,26.01
2022-10-29T12:51:21.812Z,26.17
2022-10-29T12:53:53.576Z,25.73
2022-10-29T12:56:22.151Z,25.76
2022-10-29T12:58:50.512Z,26.24
2022-10-29T13:02:05.782Z,26.49
2022-10-29T13:04:28.380Z,26.74
2022-10-29T13:07:00.622Z,26.57
2022-10-29T13:09:28.502Z,26.27
2022-10-29T13:11:56.415Z,26.51
2022-10-29T13:14:25.066Z,26.56
2022-10-29T13:16:52.619Z,25.83
2022-10-29T13:19:23.271Z,26.03
2022-10-29T13:21:58.898Z,26.10
2022-10-29T13:24:26.477Z,25.95
2022-10-29T13:26:54.657Z,26.39
2022-10-29T13:29:36.975Z,26.45
2022-10-29T13:32:06.575Z,26.14
2022-10-29T13:34:53.683Z,25.88
2022-10-29T13:37:39.572Z,26.26
2022-10-29T13:40:25.807Z,26.03
2022-10-29T13:42:56.825Z,26.57
2022-10-29T13:45:24.488Z,26.83
2022-10-29T13:47:51.950Z,27.06
2022-10-29T13:50:19.439Z,26.77
2022-10-29T13:52:47.092Z,27.05
2022-10-29T13:55:15.665Z,26.60
2022-10-29T13:57:43.832Z,26.42
2022-10-29T14:00:18.213Z,26.60
2022-10-29T14:02:49.408Z,25.98
2022-10-29T14:05:18.011Z,26.28
2022-10-29T14:07:47.360Z,26.39
2022-10-29T14:10:18.053Z,25.79
2022-10-29T14:12:45.563Z,25.78
2022-10-29T14:15:13.866Z,26.09
2022-10-29T14:17:42.828Z,26.61
2022-10-29T14:20:31.655Z,26.55
2022-10-29T14:22:59.342Z,25.97
2022-10-29T14:25:31.136Z,26.38
2022-10-29T14:28:11.940Z,26.08
2022-10-29T14:30:39.433Z,26.25
2022-10-29T14:33:19.399Z,25.88
2022-10-29T14:35:46.895Z,25.70
2022-10-29T14:38:14.376Z,25.99
2022-10-29T14:40:42.091Z,25.89
2022-10-29T14:43:13.450Z,25.58
2022-10-29T14:45:40.892Z,25.67
2022-10-29T14:48:09.652Z,25.43
2022-10-29T14:50:38.496Z,25.54
2022-10-29T14:53:06.164Z,25.56
2022-10-29T14:55:34.581Z,25.21
2022-10-29T14:58:04.118Z,25.42
2022-10-29T15:00:31.992Z,25.14
2022-10-29T15:02:59.757Z,25.30
2022-10-29T15:05:28.327Z,25.34
2022-10-29T15:08:07.073Z,25.35
2022-10-29T15:10:45.564Z,25.02
2022-10-29T15:13:22.630Z,24.98
2022-10-29T15:15:59.131Z,24.94
2022-10-29T15:18:27.370Z,24.92
2022-10-29T15:20:54.926Z,24.85
2022-10-29T15:23:28.042Z,24.71
2022-10-29T15:25:59.749Z,24.60
2022-10-29T15:28:29.204Z,24.52
2022-10-29T15:30:57.518Z,24.43
2022-10-29T15:33:26.528Z,24.43
2022-10-29T15:35:54.420Z,24.41
2022-10-29T15:38:39.868Z,24.39
2022-10-29T15:41:35.499Z,24.28
2022-10-29T15:44:03.174Z,24.17
2022-10-29T15:46:34.148Z,24.12
2022-10-29T15:49:01.776Z,24.07
2022-10-29T15:51:29.574Z,24.13
2022-10-29T15:53:57.470Z,23.96
2022-10-29T15:56:25.460Z,23.81
2022-10-29T15:58:54.757Z,23.82
2022-10-29T16:01:22.556Z,23.54
2022-10-29T16:03:50.343Z,23.72
2022-10-29T16:06:18.102Z,23.65
2022-10-29T16:08:48.693Z,23.60
2022-10-29T16:11:20.050Z,23.65
2022-10-29T16:13:53.437Z,23.62
2022-10-29T16:16:24.874Z,23.65
2022-10-29T16:18:52.779Z,23.60
2022-10-29T16:21:22.173Z,23.76
2022-10-29T16:23:50.552Z,23.74
2022-10-29T16:26:20.077Z,23.68
2022-10-29T16:28:47.739Z,23.58
2022-10-29T16:31:20.286Z,23.73
2022-10-29T16:33:49.756Z,23.70
2022-10-29T16:36:17.708Z,23.75
2022-10-29T16:38:45.172Z,23.83
2022-10-29T16:41:13.442Z,23.85
2022-10-29T16:43:41.123Z,23.77
2022-10-29T16:46:09.044Z,23.90
2022-10-29T16:48:36.548Z,23.96
2022-10-29T16:51:05.931Z,23.72
2022-10-29T16:53:33.604Z,23.62
2022-10-29T16:56:01.632Z,23.84
2022-10-29T16:58:29.335Z,23.82
2022-10-29T17:01:03.141Z,24.02
2022-10-29T17:03:30.867Z,24.13
2022-10-29T17:06:05.642Z,24.11
2022-10-29T17:08:34.265Z,23.99
2022-10-29T17:11:02.516Z,24.02
2022-10-29T17:13:30.131Z,24.21
2022-10-29T17:15:58.176Z,24.20
2022-10-29T17:18:25.890Z,24.20
2022-10-29T17:20:58.034Z,24.17
2022-10-29T17:23:27.129Z,24.01
2022-10-29T17:25:55.355Z,24.00
2022-10-29T17:28:23.324Z,23.58
2022-10-29T17:30:51.043Z,23.76
2022-10-29T17:33:18.989Z,23.43
2022-10-29T17:35:46.932Z,23.45
2022-10-29T17:38:14.729Z,23.54
2022-10-29T17:40:46.168Z,23.48
2022-10-29T17:43:13.896Z,23.43
2022-10-29T17:45:43.658Z,22.93
2022-10-29T17:48:11.405Z,23.26
2022-10-29T17:50:39.028Z,23.19
2022-10-29T17:53:06.687Z,23.12
2022-10-29T17:55:34.720Z,22.95
2022-10-29T17:58:03.695Z,22.80
2022-10-29T18:00:31.347Z,22.72
2022-10-29T18:05:27.528Z,23.07
2022-10-29T18:07:55.561Z,22.60
2022-10-29T18:10:23.230Z,22.98
2022-10-29T18:12:50.710Z,22.90
2022-10-29T18:15:21.316Z,22.51
2022-10-29T18:17:48.771Z,22.54
2022-10-29T18:20:17.069Z,22.52
2022-10-29T18:22:44.909Z,22.31
2022-10-29T18:25:12.859Z,22.71
2022-10-29T18:27:41.057Z,22.43
2022-10-29T18:30:10.065Z,22.39
2022-10-29T18:32:39.088Z,22.53
2022-10-29T18:35:07.708Z,22.51
2022-10-29T18:37:35.347Z,21.97
2022-10-29T18:40:03.030Z,22.45
2022-10-29T18:42:31.457Z,22.43
2022-10-29T18:44:59.104Z,22.17
2022-10-29T18:47:26.719Z,22.54
2022-10-29T18:49:55.754Z,22.30
2022-10-29T18:52:23.376Z,22.49
2022-10-29T18:54:50.900Z,22.57
2022-10-29T18:57:19.497Z,22.52
2022-10-29T18:59:48.946Z,22.49
2022-10-29T19:02:16.705Z,22.04
2022-10-29T19:04:44.427Z,21.91
2022-10-29T19:07:13.440Z,22.31
2022-10-29T19:09:40.890Z,22.28
2022-10-29T19:12:08.715Z,21.69
2022-10-29T19:14:36.364Z,22.22
2022-10-29T19:17:04.168Z,22.00
2022-10-29T19:19:31.897Z,22.09
2022-10-29T19:21:59.360Z,22.04
2022-10-29T19:24:28.179Z,21.77
2022-10-29T19:26:55.820Z,21.92
2022-10-29T19:29:23.319Z,21.74
2022-10-29T19:31:50.973Z,22.01
2022-10-29T19:34:18.416Z,21.58
2022-10-29T19:36:46.074Z,21.77
2022-10-29T19:39:13.523Z,22.02
2022-10-29T19:41:42.545Z,21.97
2022-10-29T19:44:10.036Z,22.10
2022-10-29T19:46:37.479Z,21.89
2022-10-29T19:49:05.145Z,21.42
2022-10-29T19:51:32.774Z,21.69
2022-10-29T19:54:02.004Z,21.64
2022-10-29T19:56:29.573Z,20.14
2022-10-29T19:58:58.555Z,21.60
2022-10-29T20:01:26.347Z,21.80
2022-10-29T20:03:53.904Z,21.88
2022-10-29T20:06:21.564Z,21.93
2022-10-29T20:08:49.195Z,21.99
2022-10-29T20:11:17.343Z,21.89
2022-10-29T20:13:44.977Z,21.87
2022-10-29T20:16:17.241Z,21.87
2022-10-29T20:18:45.065Z,21.89
2022-10-29T20:21:13.635Z,21.86
2022-10-29T20:23:41.315Z,21.99
2022-10-29T20:26:08.913Z,22.05
2022-10-29T20:28:36.392Z,21.82
2022-10-29T20:31:23.389Z,21.91
2022-10-29T20:33:51.056Z,22.14
2022-10-29T20:36:18.780Z,21.92
2022-10-29T20:38:48.602Z,21.93
2022-10-29T20:41:16.110Z,22.31
2022-10-29T20:43:43.783Z,21.91
2022-10-29T20:46:11.231Z,21.83
2022-10-29T20:48:40.217Z,21.57
2022-10-29T20:51:07.751Z,22.39
2022-10-29T20:53:35.186Z,22.14
2022-10-29T20:56:02.814Z,21.92
2022-10-29T20:58:30.303Z,21.82
2022-10-29T21:01:04.759Z,22.19
2022-10-29T21:03:33.807Z,22.46
2022-10-29T21:06:03.026Z,22.26
2022-10-29T21:08:31.146Z,22.25
2022-10-29T21:10:59.145Z,22.47
2022-10-29T21:13:26.616Z,22.40
2022-10-29T21:15:54.066Z,22.36
2022-10-29T21:18:21.555Z,22.41
2022-10-29T21:20:49.297Z,22.37
2022-10-29T21:23:21.433Z,22.66
2022-10-29T21:25:53.654Z,22.19
2022-10-29T21:28:21.673Z,21.97
2022-10-29T21:30:49.115Z,22.47
2022-10-29T21:33:16.587Z,22.01
2022-10-29T21:35:44.036Z,21.90
2022-10-29T21:38:11.910Z,21.93
2022-10-29T21:40:41.151Z,22.37
2022-10-29T21:43:09.113Z,21.98
2022-10-29T21:45:36.927Z,22.66
2022-10-29T21:48:04.915Z,22.84
2022-10-29T21:50:32.852Z,22.48
2022-10-29T21:53:01.214Z,22.57
2022-10-29T21:55:29.430Z,22.77
2022-10-29T21:57:59.041Z,22.37
2022-10-29T22:00:27.337Z,22.55
2022-10-29T22:02:57.033Z,22.76
2022-10-29T22:05:28.204Z,22.57
2022-10-29T22:07:57.764Z,22.29
2022-10-29T22:10:26.026Z,22.20
2022-10-29T22:12:53.907Z,22.37
2022-10-29T22:15:23.075Z,22.71
2022-10-29T22:17:50.804Z,22.23
2022-10-29T22:20:18.731Z,21.78
2022-10-29T22:22:46.642Z,22.37
2022-10-29T22:25:14.465Z,21.88
2022-10-29T22:27:42.318Z,22.44
2022-10-29T22:30:10.638Z,22.18
2022-10-29T22:32:39.808Z,22.21
2022-10-29T22:35:07.929Z,22.23
2022-10-29T22:37:35.671Z,22.05
2022-10-29T22:40:03.420Z,22.04
2022-10-29T22:42:31.199Z,21.55
2022-10-29T22:44:59.112Z,22.20
2022-10-29T22:47:26.882Z,22.14
2022-10-29T22:49:56.722Z,21.79
2022-10-29T22:52:24.517Z,21.42
2022-10-29T22:54:52.173Z,21.89
2022-10-29T22:57:19.968Z,22.00
2022-10-29T22:59:47.729Z,21.39
2022-10-29T23:02:15.519Z,21.77
2022-10-29T23:04:43.349Z,21.89
2022-10-29T23:07:12.564Z,21.38
2022-10-29T23:09:40.456Z,21.79
2022-10-29T23:12:08.243Z,21.92
2022-10-29T23:14:36.090Z,22.09
2022-10-29T23:17:03.923Z,22.10
2022-10-29T23:19:31.613Z,21.92
2022-10-29T23:21:59.522Z,21.98
2022-10-29T23:24:28.661Z,21.91
2022-10-29T23:26:56.606Z,21.91
2022-10-29T23:29:24.389Z,22.00
2022-10-29T23:31:52.141Z,21.73
2022-10-29T23:34:19.963Z,21.91
2022-10-29T23:36:47.772Z,21.88
2022-10-29T23:39:15.696Z,22.34
2022-10-29T23:41:44.985Z,21.88
2022-10-29T23:44:12.911Z,20.92
2022-10-29T23:46:40.890Z,21.43
2022-10-29T23:49:09.282Z,21.81
2022-10-29T23:51:37.055Z,21.71
2022-10-29T23:54:04.932Z,21.40
2022-10-29T23:56:32.786Z,21.43
2022-10-29T23:59:01.906Z,21.09
